sensor_id;sensor_type;location;lat;lon;timestamp;temperature;humidity
57624;SHT30;43448;52.264;20.644;2023-12-20T00:00:00;24.20;37.53
57624;SHT30;43448;52.264;20.644;2023-12-20T00:10:00;24.20;37.47
57624;SHT30;43448;52.264;20.644;2023-12-20T00:20:00;24.25;37.81
57624;SHT30;43448;52.264;20.644;2023-12-20T00:30:00;24.22;38.18
57624;SHT30;43448;52.264;20.644;2023-12-20T00:40:00;24.20;38.28
57624;SHT30;43448;52.264;20.644;2023-12-20T00:50:00;24.28;38.31
57624;SHT30;43448;52.264;20.644;2023-12-20T01:00:00;24.32;38.30
57624;SHT30;43448;52.264;20.644;2023-12-20T01:10:00;24.38;38.37
57624;SHT30;43448;52.264;20.644;2023-12-20T01:20:01;24.36;38.68
57624;SHT30;43448;52.264;20.644;2023-12-20T01:30:00;24.33;38.84
57624;SHT30;43448;52.264;20.644;2023-12-20T01:40:00;24.42;38.99
57624;SHT30;43448;52.264;20.644;2023-12-20T01:50:01;24.40;39.19
57624;SHT30;43448;52.264;20.644;2023-12-20T02:00:00;24.56;38.75
57624;SHT30;43448;52.264;20.644;2023-12-20T02:10:00;24.57;38.98
57624;SHT30;43448;52.264;20.644;2023-12-20T02:20:00;24.66;38.59
57624;SHT30;43448;52.264;20.644;2023-12-20T02:30:00;24.67;39.04
57624;SHT30;43448;52.264;20.644;2023-12-20T02:40:00;24.70;39.17
57624;SHT30;43448;52.264;20.644;2023-12-20T02:50:00;24.79;38.54
57624;SHT30;43448;52.264;20.644;2023-12-20T03:00:00;24.77;39.17
57624;SHT30;43448;52.264;20.644;2023-12-20T03:10:00;24.90;38.77
57624;SHT30;43448;52.264;20.644;2023-12-20T03:20:00;24.98;38.84
57624;SHT30;43448;52.264;20.644;2023-12-20T03:30:00;25.01;38.72
57624;SHT30;43448;52.264;20.644;2023-12-20T03:40:00;24.97;38.63
57624;SHT30;43448;52.264;20.644;2023-12-20T03:50:00;25.03;38.49
57624;SHT30;43448;52.264;20.644;2023-12-20T04:00:00;25.07;38.35
57624;SHT30;43448;52.264;20.644;2023-12-20T04:10:00;25.03;38.36
57624;SHT30;43448;52.264;20.644;2023-12-20T04:20:00;25.00;38.88
57624;SHT30;43448;52.264;20.644;2023-12-20T04:30:00;25.13;38.36
57624;SHT30;43448;52.264;20.644;2023-12-20T04:40:00;25.06;38.10
57624;SHT30;43448;52.264;20.644;2023-12-20T04:50:00;25.04;38.03
57624;SHT30;43448;52.264;20.644;2023-12-20T05:00:00;25.01;38.52
57624;SHT30;43448;52.264;20.644;2023-12-20T05:10:00;25.03;38.87
57624;SHT30;43448;52.264;20.644;2023-12-20T05:20:00;25.04;39.01
57624;SHT30;43448;52.264;20.644;2023-12-20T05:30:00;25.04;38.90
57624;SHT30;43448;52.264;20.644;2023-12-20T05:40:00;25.01;38.86
57624;SHT30;43448;52.264;20.644;2023-12-20T05:50:00;25.03;39.05
57624;SHT30;43448;52.264;20.644;2023-12-20T06:00:00;25.03;38.94
57624;SHT30;43448;52.264;20.644;2023-12-20T06:10:00;25.01;38.90
57624;SHT30;43448;52.264;20.644;2023-12-20T06:20:00;25.01;38.81
57624;SHT30;43448;52.264;20.644;2023-12-20T06:30:00;24.97;38.62
57624;SHT30;43448;52.264;20.644;2023-12-20T06:40:01;24.97;38.57
57624;SHT30;43448;52.264;20.644;2023-12-20T06:50:00;24.94;38.48
57624;SHT30;43448;52.264;20.644;2023-12-20T07:00:00;24.90;38.33
57624;SHT30;43448;52.264;20.644;2023-12-20T07:10:00;24.86;38.25
57624;SHT30;43448;52.264;20.644;2023-12-20T07:20:01;24.87;38.14
57624;SHT30;43448;52.264;20.644;2023-12-20T07:30:00;24.86;38.01
57624;SHT30;43448;52.264;20.644;2023-12-20T07:40:00;24.84;37.93
57624;SHT30;43448;52.264;20.644;2023-12-20T07:50:00;24.84;37.87
57624;SHT30;43448;52.264;20.644;2023-12-20T08:00:00;24.81;37.77
57624;SHT30;43448;52.264;20.644;2023-12-20T08:10:00;24.80;37.71
57624;SHT30;43448;52.264;20.644;2023-12-20T08:20:00;24.80;37.59
57624;SHT30;43448;52.264;20.644;2023-12-20T08:30:00;24.76;37.50
57624;SHT30;43448;52.264;20.644;2023-12-20T08:40:00;24.77;37.43
57624;SHT30;43448;52.264;20.644;2023-12-20T08:50:00;24.76;37.36
57624;SHT30;43448;52.264;20.644;2023-12-20T09:00:00;24.77;37.33
57624;SHT30;43448;52.264;20.644;2023-12-20T09:10:00;24.74;37.30
57624;SHT30;43448;52.264;20.644;2023-12-20T09:20:00;24.74;37.21
57624;SHT30;43448;52.264;20.644;2023-12-20T09:30:00;24.70;37.18
57624;SHT30;43448;52.264;20.644;2023-12-20T09:40:00;24.69;37.12
57624;SHT30;43448;52.264;20.644;2023-12-20T09:50:01;24.69;37.02
57624;SHT30;43448;52.264;20.644;2023-12-20T10:00:00;24.69;37.07
57624;SHT30;43448;52.264;20.644;2023-12-20T10:10:01;24.70;36.98
57624;SHT30;43448;52.264;20.644;2023-12-20T10:20:00;24.67;36.88
57624;SHT30;43448;52.264;20.644;2023-12-20T10:30:00;24.66;36.81
57624;SHT30;43448;52.264;20.644;2023-12-20T10:40:03;24.64;36.80
57624;SHT30;43448;52.264;20.644;2023-12-20T10:50:01;24.66;36.79
57624;SHT30;43448;52.264;20.644;2023-12-20T11:00:01;24.62;36.71
57624;SHT30;43448;52.264;20.644;2023-12-20T11:10:06;24.62;36.64
57624;SHT30;43448;52.264;20.644;2023-12-20T11:20:05;24.60;36.61
57624;SHT30;43448;52.264;20.644;2023-12-20T11:30:03;24.60;36.61
57624;SHT30;43448;52.264;20.644;2023-12-20T11:40:02;24.60;36.61
57624;SHT30;43448;52.264;20.644;2023-12-20T11:50:00;24.57;36.62
57624;SHT30;43448;52.264;20.644;2023-12-20T12:00:01;24.59;36.57
57624;SHT30;43448;52.264;20.644;2023-12-20T12:10:01;24.57;36.59
57624;SHT30;43448;52.264;20.644;2023-12-20T12:20:02;24.56;36.53
57624;SHT30;43448;52.264;20.644;2023-12-20T12:30:01;24.57;36.49
57624;SHT30;43448;52.264;20.644;2023-12-20T12:40:00;24.57;36.62
57624;SHT30;43448;52.264;20.644;2023-12-20T12:50:00;24.53;36.66
57624;SHT30;43448;52.264;20.644;2023-12-20T13:00:00;24.53;36.77
57624;SHT30;43448;52.264;20.644;2023-12-20T13:10:00;24.52;36.86
57624;SHT30;43448;52.264;20.644;2023-12-20T13:20:00;24.53;36.79
57624;SHT30;43448;52.264;20.644;2023-12-20T13:30:00;24.48;36.77
57624;SHT30;43448;52.264;20.644;2023-12-20T13:40:00;24.49;36.72
57624;SHT30;43448;52.264;20.644;2023-12-20T13:50:00;24.49;36.73
57624;SHT30;43448;52.264;20.644;2023-12-20T14:00:00;24.46;36.64
57624;SHT30;43448;52.264;20.644;2023-12-20T14:10:00;24.43;36.59
57624;SHT30;43448;52.264;20.644;2023-12-20T14:20:00;24.43;36.48
57624;SHT30;43448;52.264;20.644;2023-12-20T14:30:00;24.44;36.33
57624;SHT30;43448;52.264;20.644;2023-12-20T14:40:00;24.48;36.23
57624;SHT30;43448;52.264;20.644;2023-12-20T14:50:02;24.42;36.22
57624;SHT30;43448;52.264;20.644;2023-12-20T15:00:00;24.42;36.11
57624;SHT30;43448;52.264;20.644;2023-12-20T15:10:00;24.40;36.04
57624;SHT30;43448;52.264;20.644;2023-12-20T15:20:00;24.42;37.07
57624;SHT30;43448;52.264;20.644;2023-12-20T15:30:00;24.40;37.64
57624;SHT30;43448;52.264;20.644;2023-12-20T15:40:00;24.39;37.55
57624;SHT30;43448;52.264;20.644;2023-12-20T15:50:00;24.38;37.39
57624;SHT30;43448;52.264;20.644;2023-12-20T16:00:00;24.40;37.26
57624;SHT30;43448;52.264;20.644;2023-12-20T16:10:00;24.36;37.24
57624;SHT30;43448;52.264;20.644;2023-12-20T16:20:00;24.36;37.16
57624;SHT30;43448;52.264;20.644;2023-12-20T16:30:00;24.35;37.05
57624;SHT30;43448;52.264;20.644;2023-12-20T16:40:00;24.35;36.85
57624;SHT30;43448;52.264;20.644;2023-12-20T16:50:00;24.33;36.89
57624;SHT30;43448;52.264;20.644;2023-12-20T17:00:01;24.30;37.14
57624;SHT30;43448;52.264;20.644;2023-12-20T17:10:00;24.29;37.48
57624;SHT30;43448;52.264;20.644;2023-12-20T17:20:00;24.30;37.25
57624;SHT30;43448;52.264;20.644;2023-12-20T17:30:00;24.28;36.80
57624;SHT30;43448;52.264;20.644;2023-12-20T17:40:00;24.28;36.55
57624;SHT30;43448;52.264;20.644;2023-12-20T17:50:00;24.25;36.31
57624;SHT30;43448;52.264;20.644;2023-12-20T18:00:11;24.26;36.20
57624;SHT30;43448;52.264;20.644;2023-12-20T18:10:00;24.23;36.10
57624;SHT30;43448;52.264;20.644;2023-12-20T18:20:01;24.22;36.01
57624;SHT30;43448;52.264;20.644;2023-12-20T18:30:00;24.18;35.94
57624;SHT30;43448;52.264;20.644;2023-12-20T18:40:01;24.19;35.84
57624;SHT30;43448;52.264;20.644;2023-12-20T18:50:00;24.18;35.76
57624;SHT30;43448;52.264;20.644;2023-12-20T19:00:00;24.18;35.70
57624;SHT30;43448;52.264;20.644;2023-12-20T19:10:00;24.18;35.76
57624;SHT30;43448;52.264;20.644;2023-12-20T19:20:00;24.12;35.81
57624;SHT30;43448;52.264;20.644;2023-12-20T19:30:01;24.12;35.84
57624;SHT30;43448;52.264;20.644;2023-12-20T19:40:00;24.13;35.79
57624;SHT30;43448;52.264;20.644;2023-12-20T19:50:00;24.11;35.78
57624;SHT30;43448;52.264;20.644;2023-12-20T20:00:00;24.09;35.67
57624;SHT30;43448;52.264;20.644;2023-12-20T20:10:00;24.09;35.56
57624;SHT30;43448;52.264;20.644;2023-12-20T20:20:00;24.09;35.50
57624;SHT30;43448;52.264;20.644;2023-12-20T20:30:00;24.04;35.43
57624;SHT30;43448;52.264;20.644;2023-12-20T20:40:00;24.05;35.26
57624;SHT30;43448;52.264;20.644;2023-12-20T20:50:00;24.04;35.20
57624;SHT30;43448;52.264;20.644;2023-12-20T21:00:00;24.01;35.11
57624;SHT30;43448;52.264;20.644;2023-12-20T21:10:00;24.01;35.03
57624;SHT30;43448;52.264;20.644;2023-12-20T21:20:00;24.01;34.92
57624;SHT30;43448;52.264;20.644;2023-12-20T21:30:00;23.97;34.87
57624;SHT30;43448;52.264;20.644;2023-12-20T21:40:00;23.99;34.75
57624;SHT30;43448;52.264;20.644;2023-12-20T21:50:00;23.97;34.70
57624;SHT30;43448;52.264;20.644;2023-12-20T22:00:00;23.95;34.64
57624;SHT30;43448;52.264;20.644;2023-12-20T22:10:01;23.92;34.57
57624;SHT30;43448;52.264;20.644;2023-12-20T22:20:00;23.92;34.45
57624;SHT30;43448;52.264;20.644;2023-12-20T22:30:01;23.92;34.44
57624;SHT30;43448;52.264;20.644;2023-12-20T22:40:01;23.89;34.30
57624;SHT30;43448;52.264;20.644;2023-12-20T22:50:00;23.95;34.23
57624;SHT30;43448;52.264;20.644;2023-12-20T23:00:01;23.92;34.10
57624;SHT30;43448;52.264;20.644;2023-12-20T23:10:00;23.94;34.04
57624;SHT30;43448;52.264;20.644;2023-12-20T23:20:00;23.94;34.07
57624;SHT30;43448;52.264;20.644;2023-12-20T23:30:00;23.95;34.05
57624;SHT30;43448;52.264;20.644;2023-12-20T23:50:00;24.02;35.11
